sensor_id;sensor_type;location;lat;lon;timestamp;temperature;humidity
7167;DHT22;3625;51.762;14.320;2024-01-11T03:27:07;-8.70;99.90
7167;DHT22;3625;51.762;14.320;2024-01-11T04:34:18;-8.70;99.90
7167;DHT22;3625;51.762;14.320;2024-01-11T06:33:50;-7.50;99.90
7167;DHT22;3625;51.762;14.320;2024-01-11T07:38:53;-7.20;99.90
7167;DHT22;3625;51.762;14.320;2024-01-11T07:41:22;-7.20;99.90
7167;DHT22;3625;51.762;14.320;2024-01-11T07:43:53;-7.20;99.90
7167;DHT22;3625;51.762;14.320;2024-01-11T07:49:16;-7.00;99.90
7167;DHT22;3625;51.762;14.320;2024-01-11T07:51:44;-6.90;99.90
7167;DHT22;3625;51.762;14.320;2024-01-11T07:54:13;-6.70;99.90
7167;DHT22;3625;51.762;14.320;2024-01-11T07:56:41;-6.60;99.90
7167;DHT22;3625;51.762;14.320;2024-01-11T07:59:12;-6.60;99.90
7167;DHT22;3625;51.762;14.320;2024-01-11T08:01:42;-6.50;99.90
7167;DHT22;3625;51.762;14.320;2024-01-11T08:04:11;-6.50;99.90
7167;DHT22;3625;51.762;14.320;2024-01-11T08:06:39;-5.20;99.90
7167;DHT22;3625;51.762;14.320;2024-01-11T08:09:08;-6.90;99.90
7167;DHT22;3625;51.762;14.320;2024-01-11T08:11:37;-7.00;99.90
7167;DHT22;3625;51.762;14.320;2024-01-11T08:14:16;-4.90;99.90
7167;DHT22;3625;51.762;14.320;2024-01-11T08:16:44;-6.80;99.90
7167;DHT22;3625;51.762;14.320;2024-01-11T08:19:13;-5.30;99.90
7167;DHT22;3625;51.762;14.320;2024-01-11T08:21:42;-6.80;99.90
7167;DHT22;3625;51.762;14.320;2024-01-11T08:24:10;-6.70;99.90
7167;DHT22;3625;51.762;14.320;2024-01-11T08:26:39;-6.70;99.90
7167;DHT22;3625;51.762;14.320;2024-01-11T08:29:10;-6.70;99.90
7167;DHT22;3625;51.762;14.320;2024-01-11T08:31:40;-6.70;99.90
7167;DHT22;3625;51.762;14.320;2024-01-11T08:34:10;-6.60;99.90
7167;DHT22;3625;51.762;14.320;2024-01-11T08:36:39;-6.50;99.90
7167;DHT22;3625;51.762;14.320;2024-01-11T08:39:08;-6.40;99.90
7167;DHT22;3625;51.762;14.320;2024-01-11T08:41:38;-6.20;99.90
7167;DHT22;3625;51.762;14.320;2024-01-11T08:44:07;-5.90;99.90
7167;DHT22;3625;51.762;14.320;2024-01-11T08:46:35;-5.20;99.90
7167;DHT22;3625;51.762;14.320;2024-01-11T08:49:07;-5.80;99.90
7167;DHT22;3625;51.762;14.320;2024-01-11T08:51:36;-5.60;99.90
7167;DHT22;3625;51.762;14.320;2024-01-11T08:54:04;-5.30;99.90
7167;DHT22;3625;51.762;14.320;2024-01-11T08:56:36;-5.00;99.90
7167;DHT22;3625;51.762;14.320;2024-01-11T08:59:04;-5.00;99.90
7167;DHT22;3625;51.762;14.320;2024-01-11T09:01:33;-5.10;99.90
7167;DHT22;3625;51.762;14.320;2024-01-11T09:04:02;-5.50;99.90
7167;DHT22;3625;51.762;14.320;2024-01-11T09:06:33;-5.50;99.90
7167;DHT22;3625;51.762;14.320;2024-01-11T09:09:02;-5.50;99.90
7167;DHT22;3625;51.762;14.320;2024-01-11T09:11:36;-5.40;99.90
7167;DHT22;3625;51.762;14.320;2024-01-11T09:14:06;-5.60;99.90
7167;DHT22;3625;51.762;14.320;2024-01-11T09:16:38;-5.60;99.90
7167;DHT22;3625;51.762;14.320;2024-01-11T09:19:07;-5.60;99.90
7167;DHT22;3625;51.762;14.320;2024-01-11T09:21:37;-5.60;99.90
7167;DHT22;3625;51.762;14.320;2024-01-11T09:24:06;-5.60;99.90
7167;DHT22;3625;51.762;14.320;2024-01-11T09:26:34;-5.60;99.90
7167;DHT22;3625;51.762;14.320;2024-01-11T09:29:04;-5.60;99.90
7167;DHT22;3625;51.762;14.320;2024-01-11T09:31:46;-5.60;99.90
7167;DHT22;3625;51.762;14.320;2024-01-11T09:34:15;-5.50;99.90
7167;DHT22;3625;51.762;14.320;2024-01-11T09:36:45;-5.30;99.90
7167;DHT22;3625;51.762;14.320;2024-01-11T09:39:14;-7.10;99.90
7167;DHT22;3625;51.762;14.320;2024-01-11T09:41:51;-5.20;99.90
7167;DHT22;3625;51.762;14.320;2024-01-11T09:44:26;-4.90;99.90
7167;DHT22;3625;51.762;14.320;2024-01-11T09:46:54;-4.60;99.90
7167;DHT22;3625;51.762;14.320;2024-01-11T09:49:24;-4.50;99.90
7167;DHT22;3625;51.762;14.320;2024-01-11T09:51:55;-4.50;99.90
7167;DHT22;3625;51.762;14.320;2024-01-11T09:54:25;-4.40;99.90
7167;DHT22;3625;51.762;14.320;2024-01-11T09:56:55;-4.30;99.90
7167;DHT22;3625;51.762;14.320;2024-01-11T09:59:26;-4.20;99.90
7167;DHT22;3625;51.762;14.320;2024-01-11T10:02:01;-4.30;99.90
7167;DHT22;3625;51.762;14.320;2024-01-11T10:04:37;-4.40;99.90
7167;DHT22;3625;51.762;14.320;2024-01-11T10:07:08;-4.40;99.90
7167;DHT22;3625;51.762;14.320;2024-01-11T10:09:38;-4.10;99.90
7167;DHT22;3625;51.762;14.320;2024-01-11T10:12:07;-4.20;99.90
7167;DHT22;3625;51.762;14.320;2024-01-11T10:14:37;-4.20;99.90
7167;DHT22;3625;51.762;14.320;2024-01-11T10:17:06;-4.20;99.90
7167;DHT22;3625;51.762;14.320;2024-01-11T10:19:38;-4.20;99.90
7167;DHT22;3625;51.762;14.320;2024-01-11T10:22:08;-4.10;99.90
7167;DHT22;3625;51.762;14.320;2024-01-11T10:24:39;-3.90;99.90
7167;DHT22;3625;51.762;14.320;2024-01-11T10:27:09;-3.70;99.90
7167;DHT22;3625;51.762;14.320;2024-01-11T10:29:38;-3.50;99.90
7167;DHT22;3625;51.762;14.320;2024-01-11T10:32:07;-3.90;99.90
7167;DHT22;3625;51.762;14.320;2024-01-11T10:34:37;-4.00;99.90
7167;DHT22;3625;51.762;14.320;2024-01-11T10:37:09;-4.00;99.90
7167;DHT22;3625;51.762;14.320;2024-01-11T10:39:38;-3.90;99.90
7167;DHT22;3625;51.762;14.320;2024-01-11T10:42:09;-3.80;99.90
7167;DHT22;3625;51.762;14.320;2024-01-11T10:44:42;-3.90;99.90
7167;DHT22;3625;51.762;14.320;2024-01-11T10:47:15;-4.00;99.90
7167;DHT22;3625;51.762;14.320;2024-01-11T10:49:50;-3.80;99.90
7167;DHT22;3625;51.762;14.320;2024-01-11T10:52:26;-3.20;99.90
7167;DHT22;3625;51.762;14.320;2024-01-11T10:55:01;-1.80;99.90
7167;DHT22;3625;51.762;14.320;2024-01-11T10:57:32;-3.10;99.90
7167;DHT22;3625;51.762;14.320;2024-01-11T11:00:01;-3.10;99.90
7167;DHT22;3625;51.762;14.320;2024-01-11T11:02:33;-3.00;99.90
7167;DHT22;3625;51.762;14.320;2024-01-11T11:05:04;-3.20;99.90
7167;DHT22;3625;51.762;14.320;2024-01-11T11:07:38;-3.10;99.90
7167;DHT22;3625;51.762;14.320;2024-01-11T11:10:09;-3.20;99.90
7167;DHT22;3625;51.762;14.320;2024-01-11T11:12:40;-3.00;99.90
7167;DHT22;3625;51.762;14.320;2024-01-11T11:15:12;-2.90;99.90
7167;DHT22;3625;51.762;14.320;2024-01-11T11:17:44;-1.10;99.90
7167;DHT22;3625;51.762;14.320;2024-01-11T11:20:13;-2.90;99.90
7167;DHT22;3625;51.762;14.320;2024-01-11T11:22:48;-2.90;99.90
7167;DHT22;3625;51.762;14.320;2024-01-11T11:25:30;-2.80;99.90
7167;DHT22;3625;51.762;14.320;2024-01-11T11:27:59;-3.00;99.90
7167;DHT22;3625;51.762;14.320;2024-01-11T11:30:32;-3.20;99.90
7167;DHT22;3625;51.762;14.320;2024-01-11T11:33:09;-3.30;99.90
7167;DHT22;3625;51.762;14.320;2024-01-11T11:35:38;-2.70;99.90
7167;DHT22;3625;51.762;14.320;2024-01-11T11:38:09;-3.40;99.90
7167;DHT22;3625;51.762;14.320;2024-01-11T11:40:46;-3.60;99.90
7167;DHT22;3625;51.762;14.320;2024-01-11T11:43:16;-3.50;99.90
7167;DHT22;3625;51.762;14.320;2024-01-11T11:45:47;-1.70;99.90
7167;DHT22;3625;51.762;14.320;2024-01-11T11:48:47;-3.50;99.90
7167;DHT22;3625;51.762;14.320;2024-01-11T11:51:18;-3.50;99.90
7167;DHT22;3625;51.762;14.320;2024-01-11T11:53:53;-3.50;99.90
7167;DHT22;3625;51.762;14.320;2024-01-11T11:56:23;-3.50;99.90
7167;DHT22;3625;51.762;14.320;2024-01-11T11:58:52;-3.30;99.90
7167;DHT22;3625;51.762;14.320;2024-01-11T12:01:22;-3.00;99.90
7167;DHT22;3625;51.762;14.320;2024-01-11T12:03:52;-2.60;99.90
7167;DHT22;3625;51.762;14.320;2024-01-11T12:06:21;-2.40;99.90
7167;DHT22;3625;51.762;14.320;2024-01-11T12:08:54;-2.50;99.90
7167;DHT22;3625;51.762;14.320;2024-01-11T12:11:25;-2.50;99.90
7167;DHT22;3625;51.762;14.320;2024-01-11T12:13:54;-2.90;99.90
7167;DHT22;3625;51.762;14.320;2024-01-11T12:16:25;-2.90;99.90
7167;DHT22;3625;51.762;14.320;2024-01-11T12:18:54;-3.10;99.90
7167;DHT22;3625;51.762;14.320;2024-01-11T12:21:23;-3.20;99.90
7167;DHT22;3625;51.762;14.320;2024-01-11T12:23:55;-3.20;99.90
7167;DHT22;3625;51.762;14.320;2024-01-11T12:26:23;-3.00;99.90
7167;DHT22;3625;51.762;14.320;2024-01-11T12:28:52;-3.00;99.90
7167;DHT22;3625;51.762;14.320;2024-01-11T12:31:21;-2.70;99.90
7167;DHT22;3625;51.762;14.320;2024-01-11T12:33:51;-2.70;99.90
7167;DHT22;3625;51.762;14.320;2024-01-11T12:36:21;-2.60;99.90
7167;DHT22;3625;51.762;14.320;2024-01-11T12:38:50;-2.70;99.90
7167;DHT22;3625;51.762;14.320;2024-01-11T12:41:22;-2.80;99.90
7167;DHT22;3625;51.762;14.320;2024-01-11T12:43:52;-2.80;99.90
7167;DHT22;3625;51.762;14.320;2024-01-11T12:46:20;-2.70;99.90
7167;DHT22;3625;51.762;14.320;2024-01-11T12:48:50;-2.60;99.90
7167;DHT22;3625;51.762;14.320;2024-01-11T12:51:20;-1.90;99.90
7167;DHT22;3625;51.762;14.320;2024-01-11T12:53:52;-2.30;99.90
7167;DHT22;3625;51.762;14.320;2024-01-11T12:56:24;-2.70;99.90
7167;DHT22;3625;51.762;14.320;2024-01-11T12:59:05;-2.40;99.90
7167;DHT22;3625;51.762;14.320;2024-01-11T13:01:34;-2.30;99.90
7167;DHT22;3625;51.762;14.320;2024-01-11T13:04:03;-2.50;99.90
7167;DHT22;3625;51.762;14.320;2024-01-11T13:06:32;-2.30;99.90
7167;DHT22;3625;51.762;14.320;2024-01-11T13:09:01;-2.40;99.90
7167;DHT22;3625;51.762;14.320;2024-01-11T13:11:32;-2.60;99.90
7167;DHT22;3625;51.762;14.320;2024-01-11T13:14:01;-2.60;99.90
7167;DHT22;3625;51.762;14.320;2024-01-11T13:16:33;-2.60;99.90
7167;DHT22;3625;51.762;14.320;2024-01-11T13:19:02;-2.50;99.90
7167;DHT22;3625;51.762;14.320;2024-01-11T13:21:46;-2.10;99.90
7167;DHT22;3625;51.762;14.320;2024-01-11T13:24:14;-1.90;99.90
7167;DHT22;3625;51.762;14.320;2024-01-11T13:26:44;-2.40;99.90
7167;DHT22;3625;51.762;14.320;2024-01-11T13:29:13;-2.30;99.90
7167;DHT22;3625;51.762;14.320;2024-01-11T13:31:41;-2.30;99.90
7167;DHT22;3625;51.762;14.320;2024-01-11T13:34:09;-2.50;99.90
7167;DHT22;3625;51.762;14.320;2024-01-11T13:36:38;-2.40;99.90
7167;DHT22;3625;51.762;14.320;2024-01-11T13:39:07;-2.50;99.90
7167;DHT22;3625;51.762;14.320;2024-01-11T13:41:36;-2.50;99.90
7167;DHT22;3625;51.762;14.320;2024-01-11T13:44:06;-2.20;99.90
7167;DHT22;3625;51.762;14.320;2024-01-11T13:46:36;-2.50;99.90
7167;DHT22;3625;51.762;14.320;2024-01-11T13:49:05;-2.40;99.90
7167;DHT22;3625;51.762;14.320;2024-01-11T13:51:33;-2.40;99.90
7167;DHT22;3625;51.762;14.320;2024-01-11T13:54:19;-2.50;99.90
7167;DHT22;3625;51.762;14.320;2024-01-11T13:56:49;-2.70;99.90
7167;DHT22;3625;51.762;14.320;2024-01-11T13:59:20;-2.70;99.90
7167;DHT22;3625;51.762;14.320;2024-01-11T14:01:49;-2.70;99.90
7167;DHT22;3625;51.762;14.320;2024-01-11T14:04:18;-2.60;99.90
7167;DHT22;3625;51.762;14.320;2024-01-11T14:06:50;-2.60;99.90
7167;DHT22;3625;51.762;14.320;2024-01-11T14:09:20;-2.70;99.90
7167;DHT22;3625;51.762;14.320;2024-01-11T14:11:49;-2.80;99.90
7167;DHT22;3625;51.762;14.320;2024-01-11T14:14:19;-2.70;99.90
7167;DHT22;3625;51.762;14.320;2024-01-11T14:16:48;-2.70;99.90
7167;DHT22;3625;51.762;14.320;2024-01-11T14:19:18;-2.60;99.90
7167;DHT22;3625;51.762;14.320;2024-01-11T14:21:47;-2.60;99.90
7167;DHT22;3625;51.762;14.320;2024-01-11T14:24:15;-2.60;99.90
7167;DHT22;3625;51.762;14.320;2024-01-11T14:26:55;-2.60;99.90
7167;DHT22;3625;51.762;14.320;2024-01-11T14:29:25;-2.40;99.90
7167;DHT22;3625;51.762;14.320;2024-01-11T14:31:54;-3.40;99.90
7167;DHT22;3625;51.762;14.320;2024-01-11T14:34:22;-2.50;99.90
7167;DHT22;3625;51.762;14.320;2024-01-11T14:36:54;-2.60;99.90
7167;DHT22;3625;51.762;14.320;2024-01-11T14:39:22;-2.70;99.90
7167;DHT22;3625;51.762;14.320;2024-01-11T14:41:53;-2.70;99.90
7167;DHT22;3625;51.762;14.320;2024-01-11T14:44:21;-2.60;99.90
7167;DHT22;3625;51.762;14.320;2024-01-11T14:46:51;-2.60;99.90
7167;DHT22;3625;51.762;14.320;2024-01-11T14:49:20;-2.50;99.90
7167;DHT22;3625;51.762;14.320;2024-01-11T14:51:49;-2.60;99.90
7167;DHT22;3625;51.762;14.320;2024-01-11T14:54:18;-2.60;99.90
7167;DHT22;3625;51.762;14.320;2024-01-11T14:56:47;-2.60;99.90
7167;DHT22;3625;51.762;14.320;2024-01-11T14:59:16;-2.60;99.90
7167;DHT22;3625;51.762;14.320;2024-01-11T15:01:44;-2.70;99.90
7167;DHT22;3625;51.762;14.320;2024-01-11T15:04:17;-2.60;99.90
7167;DHT22;3625;51.762;14.320;2024-01-11T15:06:45;-2.60;99.90
7167;DHT22;3625;51.762;14.320;2024-01-11T15:09:14;-2.70;99.90
7167;DHT22;3625;51.762;14.320;2024-01-11T15:11:44;-2.40;99.90
7167;DHT22;3625;51.762;14.320;2024-01-11T15:14:12;-2.80;99.90
7167;DHT22;3625;51.762;14.320;2024-01-11T15:16:41;-2.80;99.90
7167;DHT22;3625;51.762;14.320;2024-01-11T15:19:11;-2.90;99.90
7167;DHT22;3625;51.762;14.320;2024-01-11T15:21:42;-2.90;99.90
7167;DHT22;3625;51.762;14.320;2024-01-11T15:24:17;-2.60;99.90
7167;DHT22;3625;51.762;14.320;2024-01-11T15:26:47;-2.90;99.90
7167;DHT22;3625;51.762;14.320;2024-01-11T15:31:46;-2.90;99.90
7167;DHT22;3625;51.762;14.320;2024-01-11T15:34:17;-2.90;99.90
7167;DHT22;3625;51.762;14.320;2024-01-11T15:36:48;-2.90;99.90
7167;DHT22;3625;51.762;14.320;2024-01-11T15:39:16;-2.90;99.90
7167;DHT22;3625;51.762;14.320;2024-01-11T15:41:54;-2.90;99.90
7167;DHT22;3625;51.762;14.320;2024-01-11T15:44:25;-2.90;99.90
7167;DHT22;3625;51.762;14.320;2024-01-11T15:46:56;-2.80;99.90
7167;DHT22;3625;51.762;14.320;2024-01-11T15:49:24;-2.80;99.90
7167;DHT22;3625;51.762;14.320;2024-01-11T15:51:55;-2.80;99.90
7167;DHT22;3625;51.762;14.320;2024-01-11T15:54:23;-2.80;99.90
7167;DHT22;3625;51.762;14.320;2024-01-11T15:56:53;-2.80;99.90
7167;DHT22;3625;51.762;14.320;2024-01-11T15:59:22;-2.80;99.90
7167;DHT22;3625;51.762;14.320;2024-01-11T16:01:53;-2.70;99.90
7167;DHT22;3625;51.762;14.320;2024-01-11T16:04:33;-2.70;99.90
7167;DHT22;3625;51.762;14.320;2024-01-11T16:07:03;-2.70;99.90
7167;DHT22;3625;51.762;14.320;2024-01-11T16:09:32;-2.70;99.90
7167;DHT22;3625;51.762;14.320;2024-01-11T16:12:04;-2.70;99.90
7167;DHT22;3625;51.762;14.320;2024-01-11T16:14:33;-2.60;99.90
7167;DHT22;3625;51.762;14.320;2024-01-11T16:17:03;-2.70;99.90
7167;DHT22;3625;51.762;14.320;2024-01-11T16:19:32;-2.60;99.90
7167;DHT22;3625;51.762;14.320;2024-01-11T16:22:02;-2.50;99.90
7167;DHT22;3625;51.762;14.320;2024-01-11T16:24:31;-2.50;99.90
7167;DHT22;3625;51.762;14.320;2024-01-11T16:27:00;-2.50;99.90
7167;DHT22;3625;51.762;14.320;2024-01-11T16:29:29;-2.40;99.90
7167;DHT22;3625;51.762;14.320;2024-01-11T16:31:57;-2.40;99.90
7167;DHT22;3625;51.762;14.320;2024-01-11T16:34:26;-2.40;99.90
7167;DHT22;3625;51.762;14.320;2024-01-11T16:36:56;-2.50;99.90
7167;DHT22;3625;51.762;14.320;2024-01-11T16:39:26;-2.50;99.90
7167;DHT22;3625;51.762;14.320;2024-01-11T16:41:54;-2.50;99.90
7167;DHT22;3625;51.762;14.320;2024-01-11T16:44:23;-2.50;99.90
7167;DHT22;3625;51.762;14.320;2024-01-11T16:46:52;-2.50;99.90
7167;DHT22;3625;51.762;14.320;2024-01-11T16:49:21;-2.50;99.90
7167;DHT22;3625;51.762;14.320;2024-01-11T16:51:50;-2.30;99.90
7167;DHT22;3625;51.762;14.320;2024-01-11T16:54:19;-2.40;99.90
7167;DHT22;3625;51.762;14.320;2024-01-11T16:56:49;-2.30;99.90
7167;DHT22;3625;51.762;14.320;2024-01-11T16:59:17;-2.30;99.90
7167;DHT22;3625;51.762;14.320;2024-01-11T17:01:45;-2.20;99.90
7167;DHT22;3625;51.762;14.320;2024-01-11T17:04:14;-2.30;99.90
7167;DHT22;3625;51.762;14.320;2024-01-11T17:06:43;-2.30;99.90
7167;DHT22;3625;51.762;14.320;2024-01-11T17:09:11;-2.30;99.90
7167;DHT22;3625;51.762;14.320;2024-01-11T17:11:40;-2.30;99.90
7167;DHT22;3625;51.762;14.320;2024-01-11T17:14:10;-1.20;99.90
7167;DHT22;3625;51.762;14.320;2024-01-11T17:16:39;-2.20;99.90
7167;DHT22;3625;51.762;14.320;2024-01-11T17:19:08;-2.30;99.90
7167;DHT22;3625;51.762;14.320;2024-01-11T17:21:36;-2.30;99.90
7167;DHT22;3625;51.762;14.320;2024-01-11T17:24:05;-2.30;99.90
7167;DHT22;3625;51.762;14.320;2024-01-11T17:26:34;-2.30;99.90
7167;DHT22;3625;51.762;14.320;2024-01-11T17:29:03;-2.20;99.90
7167;DHT22;3625;51.762;14.320;2024-01-11T17:31:34;-2.00;99.90
7167;DHT22;3625;51.762;14.320;2024-01-11T17:34:06;-2.40;99.90
7167;DHT22;3625;51.762;14.320;2024-01-11T17:36:35;-2.30;99.90
7167;DHT22;3625;51.762;14.320;2024-01-11T17:39:03;-2.30;99.90
7167;DHT22;3625;51.762;14.320;2024-01-11T17:41:38;-2.40;99.90
7167;DHT22;3625;51.762;14.320;2024-01-11T17:44:08;-1.80;99.90
7167;DHT22;3625;51.762;14.320;2024-01-11T17:46:38;-2.30;99.90
7167;DHT22;3625;51.762;14.320;2024-01-11T17:49:07;-2.30;99.90
7167;DHT22;3625;51.762;14.320;2024-01-11T17:51:36;-2.30;99.90
7167;DHT22;3625;51.762;14.320;2024-01-11T17:54:05;-2.40;99.90
7167;DHT22;3625;51.762;14.320;2024-01-11T17:56:38;-2.40;99.90
7167;DHT22;3625;51.762;14.320;2024-01-11T17:59:08;-2.30;99.90
7167;DHT22;3625;51.762;14.320;2024-01-11T18:01:39;-2.40;99.90
7167;DHT22;3625;51.762;14.320;2024-01-11T18:04:07;-2.40;99.90
7167;DHT22;3625;51.762;14.320;2024-01-11T18:06:37;-2.60;99.90
7167;DHT22;3625;51.762;14.320;2024-01-11T18:09:06;-2.40;99.90
7167;DHT22;3625;51.762;14.320;2024-01-11T18:11:34;-2.40;99.90
7167;DHT22;3625;51.762;14.320;2024-01-11T18:14:03;-2.40;99.90
7167;DHT22;3625;51.762;14.320;2024-01-11T18:16:32;-2.30;99.90
7167;DHT22;3625;51.762;14.320;2024-01-11T18:19:01;-2.20;99.90
7167;DHT22;3625;51.762;14.320;2024-01-11T18:21:30;-2.20;99.90
7167;DHT22;3625;51.762;14.320;2024-01-11T18:23:59;-2.20;99.90
7167;DHT22;3625;51.762;14.320;2024-01-11T18:26:28;-2.00;99.90
7167;DHT22;3625;51.762;14.320;2024-01-11T18:28:56;-2.10;99.90
7167;DHT22;3625;51.762;14.320;2024-01-11T18:31:25;-2.10;99.90
7167;DHT22;3625;51.762;14.320;2024-01-11T18:33:53;-2.00;99.90
7167;DHT22;3625;51.762;14.320;2024-01-11T18:36:23;-2.00;99.90
7167;DHT22;3625;51.762;14.320;2024-01-11T18:38:52;0.40;99.90
7167;DHT22;3625;51.762;14.320;2024-01-11T18:41:24;-2.00;99.90
7167;DHT22;3625;51.762;14.320;2024-01-11T18:43:53;-2.00;99.90
7167;DHT22;3625;51.762;14.320;2024-01-11T18:46:22;-2.00;99.90
7167;DHT22;3625;51.762;14.320;2024-01-11T18:48:50;-1.80;99.90
7167;DHT22;3625;51.762;14.320;2024-01-11T18:51:19;-2.00;99.90
7167;DHT22;3625;51.762;14.320;2024-01-11T18:53:49;-2.00;99.90
7167;DHT22;3625;51.762;14.320;2024-01-11T18:56:18;-1.90;99.90
7167;DHT22;3625;51.762;14.320;2024-01-11T18:58:46;-1.90;99.90
7167;DHT22;3625;51.762;14.320;2024-01-11T19:01:15;-1.90;99.90
7167;DHT22;3625;51.762;14.320;2024-01-11T19:03:43;-1.90;99.90
7167;DHT22;3625;51.762;14.320;2024-01-11T19:06:14;-1.90;99.90
7167;DHT22;3625;51.762;14.320;2024-01-11T19:08:43;-1.90;99.90
7167;DHT22;3625;51.762;14.320;2024-01-11T19:11:13;-1.90;99.90
7167;DHT22;3625;51.762;14.320;2024-01-11T19:13:44;-1.80;99.90
7167;DHT22;3625;51.762;14.320;2024-01-11T19:16:13;-1.80;99.90
7167;DHT22;3625;51.762;14.320;2024-01-11T19:18:41;-1.90;99.90
7167;DHT22;3625;51.762;14.320;2024-01-11T19:21:10;-1.90;99.90
7167;DHT22;3625;51.762;14.320;2024-01-11T19:23:39;-1.50;99.90
7167;DHT22;3625;51.762;14.320;2024-01-11T19:26:08;-1.90;99.90
7167;DHT22;3625;51.762;14.320;2024-01-11T19:28:38;-1.90;99.90
7167;DHT22;3625;51.762;14.320;2024-01-11T19:31:06;-1.90;99.90
7167;DHT22;3625;51.762;14.320;2024-01-11T19:33:36;-1.90;99.90
7167;DHT22;3625;51.762;14.320;2024-01-11T19:36:05;-0.90;99.90
7167;DHT22;3625;51.762;14.320;2024-01-11T19:38:34;-1.90;99.90
7167;DHT22;3625;51.762;14.320;2024-01-11T19:41:06;-1.90;99.90
7167;DHT22;3625;51.762;14.320;2024-01-11T19:43:38;-1.40;99.90
7167;DHT22;3625;51.762;14.320;2024-01-11T19:46:16;-1.80;99.90
7167;DHT22;3625;51.762;14.320;2024-01-11T19:48:45;-1.70;99.90
7167;DHT22;3625;51.762;14.320;2024-01-11T19:51:16;-1.70;99.90
7167;DHT22;3625;51.762;14.320;2024-01-11T19:53:44;-1.60;99.90
7167;DHT22;3625;51.762;14.320;2024-01-11T19:56:16;-1.60;99.90
7167;DHT22;3625;51.762;14.320;2024-01-11T19:58:53;-1.60;99.90
7167;DHT22;3625;51.762;14.320;2024-01-11T20:01:22;-2.60;99.90
7167;DHT22;3625;51.762;14.320;2024-01-11T20:03:54;-1.50;99.90
7167;DHT22;3625;51.762;14.320;2024-01-11T20:06:26;-0.50;99.90
7167;DHT22;3625;51.762;14.320;2024-01-11T20:08:56;-1.60;99.90
7167;DHT22;3625;51.762;14.320;2024-01-11T20:11:27;-1.60;99.90
7167;DHT22;3625;51.762;14.320;2024-01-11T20:13:57;-1.60;99.90
7167;DHT22;3625;51.762;14.320;2024-01-11T20:16:26;-0.20;99.90
7167;DHT22;3625;51.762;14.320;2024-01-11T20:18:54;-2.70;99.90
7167;DHT22;3625;51.762;14.320;2024-01-11T20:21:23;-1.50;99.90
7167;DHT22;3625;51.762;14.320;2024-01-11T20:23:51;-1.00;99.90
7167;DHT22;3625;51.762;14.320;2024-01-11T20:26:22;-1.60;99.90
7167;DHT22;3625;51.762;14.320;2024-01-11T20:28:56;-1.70;99.90
7167;DHT22;3625;51.762;14.320;2024-01-11T20:33:58;-1.80;99.90
7167;DHT22;3625;51.762;14.320;2024-01-11T20:36:29;-1.80;99.90
7167;DHT22;3625;51.762;14.320;2024-01-11T20:38:57;-1.20;99.90
7167;DHT22;3625;51.762;14.320;2024-01-11T20:41:26;0.30;99.90
7167;DHT22;3625;51.762;14.320;2024-01-11T20:43:56;-1.60;99.90
7167;DHT22;3625;51.762;14.320;2024-01-11T20:51:47;-1.60;99.90
7167;DHT22;3625;51.762;14.320;2024-01-11T20:54:16;-1.60;99.90
7167;DHT22;3625;51.762;14.320;2024-01-11T20:56:45;-1.60;99.90
7167;DHT22;3625;51.762;14.320;2024-01-11T20:59:15;-1.50;99.90
7167;DHT22;3625;51.762;14.320;2024-01-11T21:01:46;-1.40;99.90
7167;DHT22;3625;51.762;14.320;2024-01-11T21:04:15;-1.40;99.90
7167;DHT22;3625;51.762;14.320;2024-01-11T21:06:45;-1.50;99.90
7167;DHT22;3625;51.762;14.320;2024-01-11T21:09:14;-1.60;99.90
7167;DHT22;3625;51.762;14.320;2024-01-11T21:11:43;-1.10;99.90
7167;DHT22;3625;51.762;14.320;2024-01-11T21:14:12;-1.70;99.90
7167;DHT22;3625;51.762;14.320;2024-01-11T21:16:42;-1.70;99.90
7167;DHT22;3625;51.762;14.320;2024-01-11T21:19:10;-1.70;99.90
7167;DHT22;3625;51.762;14.320;2024-01-11T21:21:41;-0.40;99.90
7167;DHT22;3625;51.762;14.320;2024-01-11T21:24:11;-1.80;99.90
7167;DHT22;3625;51.762;14.320;2024-01-11T21:26:41;-1.60;99.90
7167;DHT22;3625;51.762;14.320;2024-01-11T21:29:09;-1.70;99.90
7167;DHT22;3625;51.762;14.320;2024-01-11T21:31:38;-1.70;99.90
7167;DHT22;3625;51.762;14.320;2024-01-11T21:34:08;-1.70;99.90
7167;DHT22;3625;51.762;14.320;2024-01-11T21:36:37;-1.70;99.90
7167;DHT22;3625;51.762;14.320;2024-01-11T21:39:05;-1.80;99.90
7167;DHT22;3625;51.762;14.320;2024-01-11T21:41:34;-1.80;99.90
7167;DHT22;3625;51.762;14.320;2024-01-11T21:44:03;-1.80;99.90
7167;DHT22;3625;51.762;14.320;2024-01-11T21:46:32;-1.70;99.90
7167;DHT22;3625;51.762;14.320;2024-01-11T21:49:00;-1.70;99.90
7167;DHT22;3625;51.762;14.320;2024-01-11T21:51:32;-1.60;99.90
7167;DHT22;3625;51.762;14.320;2024-01-11T21:54:00;-1.60;99.90
7167;DHT22;3625;51.762;14.320;2024-01-11T21:56:29;-1.70;99.90
7167;DHT22;3625;51.762;14.320;2024-01-11T21:58:57;-1.70;99.90
7167;DHT22;3625;51.762;14.320;2024-01-11T22:01:26;-1.70;99.90
7167;DHT22;3625;51.762;14.320;2024-01-11T22:03:56;-3.70;99.90
7167;DHT22;3625;51.762;14.320;2024-01-11T22:06:26;-1.70;99.90
7167;DHT22;3625;51.762;14.320;2024-01-11T22:08:56;-1.00;99.90
7167;DHT22;3625;51.762;14.320;2024-01-11T22:11:25;-1.80;99.90
7167;DHT22;3625;51.762;14.320;2024-01-11T22:13:56;-1.50;99.90
7167;DHT22;3625;51.762;14.320;2024-01-11T22:16:25;-1.70;99.90
7167;DHT22;3625;51.762;14.320;2024-01-11T22:18:54;-1.50;99.90
7167;DHT22;3625;51.762;14.320;2024-01-11T22:21:23;-1.60;99.90
7167;DHT22;3625;51.762;14.320;2024-01-11T22:23:56;-1.60;99.90
7167;DHT22;3625;51.762;14.320;2024-01-11T22:26:24;-1.50;99.90
7167;DHT22;3625;51.762;14.320;2024-01-11T22:28:54;-1.40;99.90
7167;DHT22;3625;51.762;14.320;2024-01-11T22:31:23;-1.50;99.90
7167;DHT22;3625;51.762;14.320;2024-01-11T22:33:51;-1.30;99.90
7167;DHT22;3625;51.762;14.320;2024-01-11T22:36:20;-1.30;99.90
7167;DHT22;3625;51.762;14.320;2024-01-11T22:38:51;-1.30;99.90
7167;DHT22;3625;51.762;14.320;2024-01-11T22:41:21;-1.30;99.90
7167;DHT22;3625;51.762;14.320;2024-01-11T22:43:50;-1.30;99.90
7167;DHT22;3625;51.762;14.320;2024-01-11T22:46:19;-1.20;99.90
7167;DHT22;3625;51.762;14.320;2024-01-11T22:48:48;-1.50;99.90
7167;DHT22;3625;51.762;14.320;2024-01-11T22:51:16;-1.50;99.90
7167;DHT22;3625;51.762;14.320;2024-01-11T22:53:45;-1.60;99.90
7167;DHT22;3625;51.762;14.320;2024-01-11T22:56:14;-1.70;99.90
7167;DHT22;3625;51.762;14.320;2024-01-11T22:58:44;-1.70;99.90
7167;DHT22;3625;51.762;14.320;2024-01-11T23:01:12;-1.60;99.90
7167;DHT22;3625;51.762;14.320;2024-01-11T23:03:41;-1.60;99.90
7167;DHT22;3625;51.762;14.320;2024-01-11T23:06:09;-1.80;99.90
7167;DHT22;3625;51.762;14.320;2024-01-11T23:08:38;-1.90;99.90
7167;DHT22;3625;51.762;14.320;2024-01-11T23:11:06;-1.60;99.90
7167;DHT22;3625;51.762;14.320;2024-01-11T23:13:35;-1.60;99.90
7167;DHT22;3625;51.762;14.320;2024-01-11T23:16:06;-1.80;99.90
7167;DHT22;3625;51.762;14.320;2024-01-11T23:18:34;-1.80;99.90
7167;DHT22;3625;51.762;14.320;2024-01-11T23:21:05;-1.90;99.90
7167;DHT22;3625;51.762;14.320;2024-01-11T23:23:33;-1.90;99.90
7167;DHT22;3625;51.762;14.320;2024-01-11T23:26:02;-1.80;99.90
7167;DHT22;3625;51.762;14.320;2024-01-11T23:28:30;-1.90;99.90
7167;DHT22;3625;51.762;14.320;2024-01-11T23:30:59;-1.90;99.90
7167;DHT22;3625;51.762;14.320;2024-01-11T23:33:29;-1.90;99.90
7167;DHT22;3625;51.762;14.320;2024-01-11T23:35:58;-1.80;99.90
7167;DHT22;3625;51.762;14.320;2024-01-11T23:38:27;-1.80;99.90
7167;DHT22;3625;51.762;14.320;2024-01-11T23:40:55;-1.80;99.90
7167;DHT22;3625;51.762;14.320;2024-01-11T23:43:24;-1.80;99.90
7167;DHT22;3625;51.762;14.320;2024-01-11T23:45:52;-1.70;99.90
7167;DHT22;3625;51.762;14.320;2024-01-11T23:48:21;-1.80;99.90